Terminal Aerodrome Forecast
Issued by NWS Wichita, KS

Home | Current Version | Previous Version | Text Only | Print | Product List | Glossary On
Versions: 1 2 3 4 5 6 7 8 9 10 11 12
954
FTUS43 KICT 110549
TAFICT
TAF
KICT 110549Z 1106/1206 16014G21KT P6SM SCT015
     FM110700 16013KT P6SM OVC015
     FM111000 17011KT 4SM BR OVC008
     FM111500 25006KT P6SM OVC015
     FM111700 32010KT P6SM BKN060
     FM111900 35016G25KT P6SM BKN150=

USA.gov is the U.S. government's official web portal to all federal, state and local government web resources and services.